sensor_id;sensor_type;location;lat;lon;timestamp;P1;durP1;ratioP1;P2;durP2;ratioP2
34030;SDS011;20319;28.466;-16.274;2023-08-06T00:00:20;28.92;;;5.88;;
34030;SDS011;20319;28.466;-16.274;2023-08-06T00:02:46;25.02;;;5.47;;
34030;SDS011;20319;28.466;-16.274;2023-08-06T00:05:12;21.63;;;5.43;;
34030;SDS011;20319;28.466;-16.274;2023-08-06T00:07:38;23.15;;;5.63;;
34030;SDS011;20319;28.466;-16.274;2023-08-06T00:10:04;22.60;;;5.63;;
34030;SDS011;20319;28.466;-16.274;2023-08-06T00:12:30;20.73;;;5.30;;
34030;SDS011;20319;28.466;-16.274;2023-08-06T00:14:55;26.05;;;5.78;;
34030;SDS011;20319;28.466;-16.274;2023-08-06T00:17:21;23.55;;;5.45;;
34030;SDS011;20319;28.466;-16.274;2023-08-06T00:19:46;30.65;;;6.18;;
34030;SDS011;20319;28.466;-16.274;2023-08-06T00:22:12;15.60;;;5.13;;
34030;SDS011;20319;28.466;-16.274;2023-08-06T00:24:38;27.88;;;5.45;;
34030;SDS011;20319;28.466;-16.274;2023-08-06T00:27:03;25.83;;;5.70;;
34030;SDS011;20319;28.466;-16.274;2023-08-06T00:29:29;25.98;;;5.70;;
34030;SDS011;20319;28.466;-16.274;2023-08-06T00:31:55;22.88;;;5.30;;
34030;SDS011;20319;28.466;-16.274;2023-08-06T00:34:21;26.92;;;5.10;;
34030;SDS011;20319;28.466;-16.274;2023-08-06T00:36:46;23.48;;;4.65;;
34030;SDS011;20319;28.466;-16.274;2023-08-06T00:39:12;28.30;;;6.28;;
34030;SDS011;20319;28.466;-16.274;2023-08-06T00:41:37;23.40;;;5.47;;
34030;SDS011;20319;28.466;-16.274;2023-08-06T00:44:03;20.20;;;4.90;;
34030;SDS011;20319;28.466;-16.274;2023-08-06T00:46:29;15.43;;;5.25;;
34030;SDS011;20319;28.466;-16.274;2023-08-06T00:48:56;20.60;;;4.82;;
34030;SDS011;20319;28.466;-16.274;2023-08-06T00:51:22;18.63;;;5.00;;
34030;SDS011;20319;28.466;-16.274;2023-08-06T00:53:50;23.48;;;5.65;;
34030;SDS011;20319;28.466;-16.274;2023-08-06T00:56:16;24.90;;;5.45;;
34030;SDS011;20319;28.466;-16.274;2023-08-06T00:58:42;23.08;;;5.25;;
34030;SDS011;20319;28.466;-16.274;2023-08-06T01:01:09;25.92;;;5.80;;
34030;SDS011;20319;28.466;-16.274;2023-08-06T01:03:35;23.67;;;5.43;;
34030;SDS011;20319;28.466;-16.274;2023-08-06T01:06:01;27.38;;;6.05;;
34030;SDS011;20319;28.466;-16.274;2023-08-06T01:13:54;20.15;;;5.30;;
34030;SDS011;20319;28.466;-16.274;2023-08-06T01:16:26;20.48;;;5.35;;
34030;SDS011;20319;28.466;-16.274;2023-08-06T01:18:52;22.38;;;5.18;;
34030;SDS011;20319;28.466;-16.274;2023-08-06T01:21:18;21.75;;;5.15;;
34030;SDS011;20319;28.466;-16.274;2023-08-06T01:23:45;21.05;;;5.00;;
34030;SDS011;20319;28.466;-16.274;2023-08-06T01:29:04;25.77;;;5.95;;
34030;SDS011;20319;28.466;-16.274;2023-08-06T01:31:36;23.67;;;5.00;;
34030;SDS011;20319;28.466;-16.274;2023-08-06T01:34:03;19.38;;;5.65;;
34030;SDS011;20319;28.466;-16.274;2023-08-06T01:36:32;24.98;;;5.70;;
34030;SDS011;20319;28.466;-16.274;2023-08-06T01:38:59;28.02;;;5.43;;
34030;SDS011;20319;28.466;-16.274;2023-08-06T01:41:24;19.55;;;5.13;;
34030;SDS011;20319;28.466;-16.274;2023-08-06T01:43:50;23.55;;;5.47;;
34030;SDS011;20319;28.466;-16.274;2023-08-06T01:46:15;22.30;;;5.10;;
34030;SDS011;20319;28.466;-16.274;2023-08-06T01:48:41;18.55;;;4.55;;
34030;SDS011;20319;28.466;-16.274;2023-08-06T01:51:07;24.75;;;5.40;;
34030;SDS011;20319;28.466;-16.274;2023-08-06T01:53:33;22.20;;;4.75;;
34030;SDS011;20319;28.466;-16.274;2023-08-06T01:55:59;24.95;;;6.07;;
34030;SDS011;20319;28.466;-16.274;2023-08-06T01:58:25;21.63;;;4.97;;
34030;SDS011;20319;28.466;-16.274;2023-08-06T02:00:50;20.60;;;4.95;;
34030;SDS011;20319;28.466;-16.274;2023-08-06T02:03:16;23.20;;;5.20;;
34030;SDS011;20319;28.466;-16.274;2023-08-06T02:05:42;19.60;;;5.25;;
34030;SDS011;20319;28.466;-16.274;2023-08-06T02:08:08;21.27;;;4.63;;
34030;SDS011;20319;28.466;-16.274;2023-08-06T02:10:33;19.92;;;4.80;;
34030;SDS011;20319;28.466;-16.274;2023-08-06T02:12:59;23.70;;;5.43;;
34030;SDS011;20319;28.466;-16.274;2023-08-06T02:15:25;18.15;;;5.25;;
34030;SDS011;20319;28.466;-16.274;2023-08-06T02:17:51;23.38;;;4.82;;
34030;SDS011;20319;28.466;-16.274;2023-08-06T02:20:16;18.10;;;4.65;;
34030;SDS011;20319;28.466;-16.274;2023-08-06T02:22:42;19.65;;;4.65;;
34030;SDS011;20319;28.466;-16.274;2023-08-06T02:25:08;22.48;;;5.28;;
34030;SDS011;20319;28.466;-16.274;2023-08-06T02:27:33;23.48;;;5.20;;
34030;SDS011;20319;28.466;-16.274;2023-08-06T02:30:00;19.65;;;4.80;;
34030;SDS011;20319;28.466;-16.274;2023-08-06T02:32:25;21.98;;;5.35;;
34030;SDS011;20319;28.466;-16.274;2023-08-06T02:34:51;22.35;;;4.70;;
34030;SDS011;20319;28.466;-16.274;2023-08-06T02:37:17;20.20;;;4.57;;
34030;SDS011;20319;28.466;-16.274;2023-08-06T02:39:42;17.17;;;4.47;;
34030;SDS011;20319;28.466;-16.274;2023-08-06T02:42:08;21.20;;;5.18;;
34030;SDS011;20319;28.466;-16.274;2023-08-06T02:44:35;16.10;;;5.18;;
34030;SDS011;20319;28.466;-16.274;2023-08-06T02:47:01;21.02;;;5.15;;
34030;SDS011;20319;28.466;-16.274;2023-08-06T02:49:27;20.15;;;4.70;;
34030;SDS011;20319;28.466;-16.274;2023-08-06T02:51:52;21.05;;;4.60;;
34030;SDS011;20319;28.466;-16.274;2023-08-06T02:54:18;23.23;;;4.90;;
34030;SDS011;20319;28.466;-16.274;2023-08-06T02:56:45;20.00;;;5.10;;
34030;SDS011;20319;28.466;-16.274;2023-08-06T02:59:11;13.88;;;4.43;;
34030;SDS011;20319;28.466;-16.274;2023-08-06T03:01:38;15.50;;;4.25;;
34030;SDS011;20319;28.466;-16.274;2023-08-06T03:04:04;14.70;;;4.05;;
34030;SDS011;20319;28.466;-16.274;2023-08-06T03:06:30;15.63;;;4.20;;
34030;SDS011;20319;28.466;-16.274;2023-08-06T03:08:55;17.65;;;4.32;;
34030;SDS011;20319;28.466;-16.274;2023-08-06T03:11:21;16.10;;;4.53;;
34030;SDS011;20319;28.466;-16.274;2023-08-06T03:13:47;16.77;;;4.85;;
34030;SDS011;20319;28.466;-16.274;2023-08-06T03:16:13;19.95;;;4.95;;
34030;SDS011;20319;28.466;-16.274;2023-08-06T03:18:39;18.10;;;4.82;;
34030;SDS011;20319;28.466;-16.274;2023-08-06T03:21:05;17.70;;;4.35;;
34030;SDS011;20319;28.466;-16.274;2023-08-06T03:23:31;18.98;;;4.93;;
34030;SDS011;20319;28.466;-16.274;2023-08-06T03:26:00;20.40;;;5.22;;
34030;SDS011;20319;28.466;-16.274;2023-08-06T03:28:27;16.33;;;4.97;;
34030;SDS011;20319;28.466;-16.274;2023-08-06T03:31:00;18.02;;;4.40;;
34030;SDS011;20319;28.466;-16.274;2023-08-06T03:33:26;20.38;;;4.75;;
34030;SDS011;20319;28.466;-16.274;2023-08-06T03:35:52;23.00;;;5.15;;
34030;SDS011;20319;28.466;-16.274;2023-08-06T03:38:17;17.40;;;4.13;;
34030;SDS011;20319;28.466;-16.274;2023-08-06T03:40:43;19.17;;;4.72;;
34030;SDS011;20319;28.466;-16.274;2023-08-06T03:43:08;19.98;;;4.75;;
34030;SDS011;20319;28.466;-16.274;2023-08-06T03:45:34;17.58;;;4.20;;
34030;SDS011;20319;28.466;-16.274;2023-08-06T03:48:00;21.05;;;5.20;;
34030;SDS011;20319;28.466;-16.274;2023-08-06T03:50:25;25.90;;;5.20;;
34030;SDS011;20319;28.466;-16.274;2023-08-06T03:52:51;18.05;;;4.10;;
34030;SDS011;20319;28.466;-16.274;2023-08-06T03:55:16;19.20;;;5.00;;
34030;SDS011;20319;28.466;-16.274;2023-08-06T03:57:42;19.08;;;4.70;;
34030;SDS011;20319;28.466;-16.274;2023-08-06T04:00:08;21.52;;;5.03;;
34030;SDS011;20319;28.466;-16.274;2023-08-06T04:02:34;19.25;;;4.93;;
34030;SDS011;20319;28.466;-16.274;2023-08-06T04:05:00;20.23;;;4.93;;
34030;SDS011;20319;28.466;-16.274;2023-08-06T04:07:26;19.75;;;5.22;;
34030;SDS011;20319;28.466;-16.274;2023-08-06T04:09:56;24.08;;;5.93;;
34030;SDS011;20319;28.466;-16.274;2023-08-06T04:12:26;21.65;;;4.53;;
34030;SDS011;20319;28.466;-16.274;2023-08-06T04:14:52;20.15;;;5.00;;
34030;SDS011;20319;28.466;-16.274;2023-08-06T04:17:18;19.15;;;5.25;;
34030;SDS011;20319;28.466;-16.274;2023-08-06T04:19:49;22.52;;;5.45;;
34030;SDS011;20319;28.466;-16.274;2023-08-06T04:22:16;25.08;;;5.65;;
34030;SDS011;20319;28.466;-16.274;2023-08-06T04:24:42;23.55;;;5.22;;
34030;SDS011;20319;28.466;-16.274;2023-08-06T04:27:11;18.75;;;5.47;;
34030;SDS011;20319;28.466;-16.274;2023-08-06T04:29:38;23.00;;;5.32;;
34030;SDS011;20319;28.466;-16.274;2023-08-06T04:32:05;26.27;;;5.20;;
34030;SDS011;20319;28.466;-16.274;2023-08-06T04:34:32;29.85;;;5.32;;
34030;SDS011;20319;28.466;-16.274;2023-08-06T04:36:58;27.33;;;5.35;;
34030;SDS011;20319;28.466;-16.274;2023-08-06T04:39:25;21.85;;;4.85;;
34030;SDS011;20319;28.466;-16.274;2023-08-06T04:41:50;26.30;;;6.32;;
34030;SDS011;20319;28.466;-16.274;2023-08-06T04:44:16;23.08;;;5.80;;
34030;SDS011;20319;28.466;-16.274;2023-08-06T04:46:42;30.42;;;5.57;;
34030;SDS011;20319;28.466;-16.274;2023-08-06T04:49:07;24.00;;;5.75;;
34030;SDS011;20319;28.466;-16.274;2023-08-06T04:51:33;21.73;;;5.38;;
34030;SDS011;20319;28.466;-16.274;2023-08-06T04:53:59;23.13;;;5.75;;
34030;SDS011;20319;28.466;-16.274;2023-08-06T04:56:24;22.95;;;5.88;;
34030;SDS011;20319;28.466;-16.274;2023-08-06T04:58:50;27.33;;;6.18;;
34030;SDS011;20319;28.466;-16.274;2023-08-06T05:01:16;20.95;;;5.30;;
34030;SDS011;20319;28.466;-16.274;2023-08-06T05:03:41;27.17;;;5.95;;
34030;SDS011;20319;28.466;-16.274;2023-08-06T05:06:07;22.73;;;5.32;;
34030;SDS011;20319;28.466;-16.274;2023-08-06T05:08:33;23.58;;;5.85;;
34030;SDS011;20319;28.466;-16.274;2023-08-06T05:10:58;21.73;;;5.20;;
34030;SDS011;20319;28.466;-16.274;2023-08-06T05:13:24;27.75;;;6.43;;
34030;SDS011;20319;28.466;-16.274;2023-08-06T05:15:50;24.05;;;5.50;;
34030;SDS011;20319;28.466;-16.274;2023-08-06T05:18:18;22.85;;;5.38;;
34030;SDS011;20319;28.466;-16.274;2023-08-06T05:20:44;16.02;;;4.07;;
34030;SDS011;20319;28.466;-16.274;2023-08-06T05:23:10;19.85;;;4.88;;
34030;SDS011;20319;28.466;-16.274;2023-08-06T05:25:36;18.13;;;4.50;;
34030;SDS011;20319;28.466;-16.274;2023-08-06T05:28:02;17.10;;;4.50;;
34030;SDS011;20319;28.466;-16.274;2023-08-06T05:30:28;24.45;;;5.30;;
34030;SDS011;20319;28.466;-16.274;2023-08-06T05:32:54;20.30;;;4.47;;
34030;SDS011;20319;28.466;-16.274;2023-08-06T05:35:20;17.08;;;4.70;;
34030;SDS011;20319;28.466;-16.274;2023-08-06T05:37:47;23.25;;;5.18;;
34030;SDS011;20319;28.466;-16.274;2023-08-06T05:40:13;18.77;;;4.95;;
34030;SDS011;20319;28.466;-16.274;2023-08-06T05:42:39;24.30;;;4.90;;
34030;SDS011;20319;28.466;-16.274;2023-08-06T05:45:05;21.52;;;5.70;;
34030;SDS011;20319;28.466;-16.274;2023-08-06T05:47:31;20.75;;;5.05;;
34030;SDS011;20319;28.466;-16.274;2023-08-06T05:49:57;17.73;;;4.53;;
34030;SDS011;20319;28.466;-16.274;2023-08-06T05:52:22;23.15;;;5.38;;
34030;SDS011;20319;28.466;-16.274;2023-08-06T05:54:48;22.02;;;4.95;;
34030;SDS011;20319;28.466;-16.274;2023-08-06T05:57:13;25.85;;;5.15;;
34030;SDS011;20319;28.466;-16.274;2023-08-06T05:59:40;24.80;;;5.85;;
34030;SDS011;20319;28.466;-16.274;2023-08-06T06:02:06;26.00;;;6.07;;
34030;SDS011;20319;28.466;-16.274;2023-08-06T06:04:31;24.88;;;5.22;;
34030;SDS011;20319;28.466;-16.274;2023-08-06T06:06:57;24.48;;;4.65;;
34030;SDS011;20319;28.466;-16.274;2023-08-06T06:09:22;27.75;;;5.45;;
34030;SDS011;20319;28.466;-16.274;2023-08-06T06:11:48;26.75;;;6.05;;
34030;SDS011;20319;28.466;-16.274;2023-08-06T06:14:16;25.48;;;5.63;;
34030;SDS011;20319;28.466;-16.274;2023-08-06T06:16:42;25.08;;;5.82;;
34030;SDS011;20319;28.466;-16.274;2023-08-06T06:19:08;27.05;;;6.15;;
34030;SDS011;20319;28.466;-16.274;2023-08-06T06:21:33;27.52;;;5.80;;
34030;SDS011;20319;28.466;-16.274;2023-08-06T06:23:59;20.15;;;5.28;;
34030;SDS011;20319;28.466;-16.274;2023-08-06T06:26:24;22.55;;;5.15;;
34030;SDS011;20319;28.466;-16.274;2023-08-06T06:28:50;26.13;;;5.63;;
34030;SDS011;20319;28.466;-16.274;2023-08-06T06:31:16;28.52;;;5.97;;
34030;SDS011;20319;28.466;-16.274;2023-08-06T06:33:42;20.85;;;4.80;;
34030;SDS011;20319;28.466;-16.274;2023-08-06T06:36:07;28.10;;;5.60;;
34030;SDS011;20319;28.466;-16.274;2023-08-06T06:38:33;21.27;;;5.78;;
34030;SDS011;20319;28.466;-16.274;2023-08-06T06:40:59;26.00;;;5.03;;
34030;SDS011;20319;28.466;-16.274;2023-08-06T06:43:25;23.70;;;5.70;;
34030;SDS011;20319;28.466;-16.274;2023-08-06T06:45:57;19.45;;;5.03;;
34030;SDS011;20319;28.466;-16.274;2023-08-06T06:48:29;18.27;;;5.07;;
34030;SDS011;20319;28.466;-16.274;2023-08-06T06:50:56;24.08;;;4.93;;
34030;SDS011;20319;28.466;-16.274;2023-08-06T06:53:23;20.75;;;4.80;;
34030;SDS011;20319;28.466;-16.274;2023-08-06T06:55:53;21.42;;;5.50;;
34030;SDS011;20319;28.466;-16.274;2023-08-06T06:58:19;22.08;;;5.32;;
34030;SDS011;20319;28.466;-16.274;2023-08-06T07:00:45;16.73;;;4.72;;
34030;SDS011;20319;28.466;-16.274;2023-08-06T07:03:12;24.58;;;5.70;;
34030;SDS011;20319;28.466;-16.274;2023-08-06T07:05:38;21.33;;;5.03;;
34030;SDS011;20319;28.466;-16.274;2023-08-06T07:08:03;19.38;;;5.63;;
34030;SDS011;20319;28.466;-16.274;2023-08-06T07:10:29;18.83;;;4.90;;
34030;SDS011;20319;28.466;-16.274;2023-08-06T07:12:55;17.60;;;4.30;;
34030;SDS011;20319;28.466;-16.274;2023-08-06T07:15:20;20.88;;;4.82;;
34030;SDS011;20319;28.466;-16.274;2023-08-06T07:17:46;22.55;;;4.80;;
34030;SDS011;20319;28.466;-16.274;2023-08-06T07:20:12;17.88;;;4.57;;
34030;SDS011;20319;28.466;-16.274;2023-08-06T07:22:37;17.02;;;4.38;;
34030;SDS011;20319;28.466;-16.274;2023-08-06T07:25:03;25.05;;;4.80;;
34030;SDS011;20319;28.466;-16.274;2023-08-06T07:27:29;17.02;;;4.63;;
34030;SDS011;20319;28.466;-16.274;2023-08-06T07:29:54;16.90;;;4.75;;
34030;SDS011;20319;28.466;-16.274;2023-08-06T07:32:20;15.52;;;4.15;;
34030;SDS011;20319;28.466;-16.274;2023-08-06T07:34:46;17.80;;;4.38;;
34030;SDS011;20319;28.466;-16.274;2023-08-06T07:37:11;20.55;;;4.40;;
34030;SDS011;20319;28.466;-16.274;2023-08-06T07:39:37;14.40;;;4.15;;
34030;SDS011;20319;28.466;-16.274;2023-08-06T07:42:07;14.80;;;3.83;;
34030;SDS011;20319;28.466;-16.274;2023-08-06T07:44:33;14.38;;;4.35;;
34030;SDS011;20319;28.466;-16.274;2023-08-06T07:46:58;17.38;;;3.83;;
34030;SDS011;20319;28.466;-16.274;2023-08-06T07:49:24;18.42;;;4.25;;
34030;SDS011;20319;28.466;-16.274;2023-08-06T07:51:50;17.95;;;4.03;;
34030;SDS011;20319;28.466;-16.274;2023-08-06T07:54:17;15.88;;;3.97;;
34030;SDS011;20319;28.466;-16.274;2023-08-06T07:56:42;16.63;;;4.40;;
34030;SDS011;20319;28.466;-16.274;2023-08-06T07:59:08;16.38;;;4.38;;
34030;SDS011;20319;28.466;-16.274;2023-08-06T08:01:34;14.20;;;4.53;;
34030;SDS011;20319;28.466;-16.274;2023-08-06T08:04:00;18.10;;;3.88;;
34030;SDS011;20319;28.466;-16.274;2023-08-06T08:06:25;13.70;;;3.78;;
34030;SDS011;20319;28.466;-16.274;2023-08-06T08:08:51;20.27;;;4.32;;
34030;SDS011;20319;28.466;-16.274;2023-08-06T08:11:17;15.43;;;4.22;;
34030;SDS011;20319;28.466;-16.274;2023-08-06T08:13:43;13.25;;;3.97;;
34030;SDS011;20319;28.466;-16.274;2023-08-06T08:16:09;19.15;;;4.30;;
34030;SDS011;20319;28.466;-16.274;2023-08-06T08:18:35;15.70;;;4.70;;
34030;SDS011;20319;28.466;-16.274;2023-08-06T08:21:00;12.90;;;4.00;;
34030;SDS011;20319;28.466;-16.274;2023-08-06T08:23:27;16.33;;;4.75;;
34030;SDS011;20319;28.466;-16.274;2023-08-06T08:25:53;14.23;;;4.45;;
34030;SDS011;20319;28.466;-16.274;2023-08-06T08:28:18;15.75;;;4.80;;
34030;SDS011;20319;28.466;-16.274;2023-08-06T08:30:44;17.35;;;4.57;;
34030;SDS011;20319;28.466;-16.274;2023-08-06T08:33:10;18.88;;;4.30;;
34030;SDS011;20319;28.466;-16.274;2023-08-06T08:35:36;21.73;;;4.75;;
34030;SDS011;20319;28.466;-16.274;2023-08-06T08:38:02;16.55;;;4.20;;
34030;SDS011;20319;28.466;-16.274;2023-08-06T08:40:30;14.50;;;4.35;;
34030;SDS011;20319;28.466;-16.274;2023-08-06T08:43:01;16.35;;;4.03;;
34030;SDS011;20319;28.466;-16.274;2023-08-06T08:45:28;12.35;;;4.18;;
34030;SDS011;20319;28.466;-16.274;2023-08-06T08:47:54;13.07;;;4.03;;
34030;SDS011;20319;28.466;-16.274;2023-08-06T08:50:21;16.25;;;4.20;;
34030;SDS011;20319;28.466;-16.274;2023-08-06T08:52:47;22.60;;;5.05;;
34030;SDS011;20319;28.466;-16.274;2023-08-06T08:55:15;17.10;;;3.92;;
34030;SDS011;20319;28.466;-16.274;2023-08-06T08:57:42;17.15;;;5.07;;
34030;SDS011;20319;28.466;-16.274;2023-08-06T09:00:08;14.95;;;4.80;;
34030;SDS011;20319;28.466;-16.274;2023-08-06T09:02:34;16.42;;;4.07;;
34030;SDS011;20319;28.466;-16.274;2023-08-06T09:05:03;18.48;;;4.70;;
34030;SDS011;20319;28.466;-16.274;2023-08-06T09:07:38;15.73;;;4.47;;
34030;SDS011;20319;28.466;-16.274;2023-08-06T09:10:08;16.77;;;3.95;;
34030;SDS011;20319;28.466;-16.274;2023-08-06T09:12:36;25.55;;;5.05;;
34030;SDS011;20319;28.466;-16.274;2023-08-06T09:15:02;18.00;;;4.05;;
34030;SDS011;20319;28.466;-16.274;2023-08-06T09:17:28;19.02;;;4.13;;
34030;SDS011;20319;28.466;-16.274;2023-08-06T09:19:54;14.02;;;4.55;;
34030;SDS011;20319;28.466;-16.274;2023-08-06T09:22:20;15.95;;;4.15;;
34030;SDS011;20319;28.466;-16.274;2023-08-06T09:24:46;14.93;;;4.30;;
34030;SDS011;20319;28.466;-16.274;2023-08-06T09:27:12;11.38;;;3.65;;
34030;SDS011;20319;28.466;-16.274;2023-08-06T09:29:42;17.30;;;4.25;;
34030;SDS011;20319;28.466;-16.274;2023-08-06T09:32:08;14.63;;;3.85;;
34030;SDS011;20319;28.466;-16.274;2023-08-06T09:34:34;14.15;;;4.03;;
34030;SDS011;20319;28.466;-16.274;2023-08-06T09:37:00;17.80;;;4.45;;
34030;SDS011;20319;28.466;-16.274;2023-08-06T09:39:26;17.65;;;4.68;;
34030;SDS011;20319;28.466;-16.274;2023-08-06T09:41:56;10.52;;;4.03;;
34030;SDS011;20319;28.466;-16.274;2023-08-06T09:44:24;14.93;;;4.00;;
34030;SDS011;20319;28.466;-16.274;2023-08-06T09:46:51;14.63;;;3.83;;
34030;SDS011;20319;28.466;-16.274;2023-08-06T09:49:28;16.17;;;4.18;;
34030;SDS011;20319;28.466;-16.274;2023-08-06T09:52:08;12.18;;;3.72;;
34030;SDS011;20319;28.466;-16.274;2023-08-06T09:54:36;13.18;;;4.15;;
34030;SDS011;20319;28.466;-16.274;2023-08-06T09:57:03;10.93;;;3.63;;
34030;SDS011;20319;28.466;-16.274;2023-08-06T09:59:29;14.38;;;4.43;;
34030;SDS011;20319;28.466;-16.274;2023-08-06T10:01:55;14.65;;;4.13;;
34030;SDS011;20319;28.466;-16.274;2023-08-06T10:04:21;13.75;;;4.05;;
34030;SDS011;20319;28.466;-16.274;2023-08-06T10:06:48;14.95;;;4.30;;
34030;SDS011;20319;28.466;-16.274;2023-08-06T10:09:14;12.93;;;3.40;;
34030;SDS011;20319;28.466;-16.274;2023-08-06T10:11:40;14.93;;;5.15;;
34030;SDS011;20319;28.466;-16.274;2023-08-06T10:14:08;17.85;;;4.15;;
34030;SDS011;20319;28.466;-16.274;2023-08-06T10:16:37;14.07;;;4.07;;
34030;SDS011;20319;28.466;-16.274;2023-08-06T10:19:05;14.32;;;4.30;;
34030;SDS011;20319;28.466;-16.274;2023-08-06T10:21:34;15.05;;;4.25;;
34030;SDS011;20319;28.466;-16.274;2023-08-06T10:23:59;16.42;;;3.83;;
34030;SDS011;20319;28.466;-16.274;2023-08-06T10:26:27;15.07;;;3.92;;
34030;SDS011;20319;28.466;-16.274;2023-08-06T10:28:53;17.50;;;4.45;;
34030;SDS011;20319;28.466;-16.274;2023-08-06T10:31:19;16.23;;;4.53;;
34030;SDS011;20319;28.466;-16.274;2023-08-06T10:33:46;17.77;;;4.25;;
34030;SDS011;20319;28.466;-16.274;2023-08-06T10:36:13;11.60;;;3.65;;
34030;SDS011;20319;28.466;-16.274;2023-08-06T10:38:49;15.70;;;4.07;;
34030;SDS011;20319;28.466;-16.274;2023-08-06T10:41:22;16.50;;;4.05;;
34030;SDS011;20319;28.466;-16.274;2023-08-06T10:43:52;17.65;;;4.50;;
34030;SDS011;20319;28.466;-16.274;2023-08-06T10:46:33;14.00;;;4.00;;
34030;SDS011;20319;28.466;-16.274;2023-08-06T10:48:58;12.02;;;3.80;;
34030;SDS011;20319;28.466;-16.274;2023-08-06T10:51:24;15.00;;;3.83;;
34030;SDS011;20319;28.466;-16.274;2023-08-06T10:53:50;15.23;;;3.65;;
34030;SDS011;20319;28.466;-16.274;2023-08-06T10:56:17;14.07;;;4.20;;
34030;SDS011;20319;28.466;-16.274;2023-08-06T10:58:44;18.73;;;3.80;;
34030;SDS011;20319;28.466;-16.274;2023-08-06T11:01:11;13.02;;;3.50;;
34030;SDS011;20319;28.466;-16.274;2023-08-06T11:03:37;13.68;;;3.78;;
34030;SDS011;20319;28.466;-16.274;2023-08-06T11:06:03;10.85;;;3.80;;
34030;SDS011;20319;28.466;-16.274;2023-08-06T11:08:33;13.68;;;4.00;;
34030;SDS011;20319;28.466;-16.274;2023-08-06T11:11:10;13.48;;;4.00;;
34030;SDS011;20319;28.466;-16.274;2023-08-06T11:13:41;18.08;;;4.15;;
34030;SDS011;20319;28.466;-16.274;2023-08-06T11:16:07;13.35;;;3.67;;
34030;SDS011;20319;28.466;-16.274;2023-08-06T11:18:34;14.05;;;3.92;;
34030;SDS011;20319;28.466;-16.274;2023-08-06T11:21:00;16.55;;;3.67;;
34030;SDS011;20319;28.466;-16.274;2023-08-06T11:23:27;13.40;;;3.50;;
34030;SDS011;20319;28.466;-16.274;2023-08-06T11:25:54;13.48;;;4.22;;
34030;SDS011;20319;28.466;-16.274;2023-08-06T11:28:20;15.65;;;3.88;;
34030;SDS011;20319;28.466;-16.274;2023-08-06T11:30:49;12.98;;;3.90;;
34030;SDS011;20319;28.466;-16.274;2023-08-06T11:33:24;13.57;;;4.18;;
34030;SDS011;20319;28.466;-16.274;2023-08-06T11:35:50;14.75;;;5.97;;
34030;SDS011;20319;28.466;-16.274;2023-08-06T11:38:17;15.43;;;3.80;;
34030;SDS011;20319;28.466;-16.274;2023-08-06T11:40:49;16.40;;;4.15;;
34030;SDS011;20319;28.466;-16.274;2023-08-06T11:43:15;12.90;;;3.78;;
34030;SDS011;20319;28.466;-16.274;2023-08-06T11:45:43;18.67;;;4.15;;
34030;SDS011;20319;28.466;-16.274;2023-08-06T11:48:09;17.10;;;3.85;;
34030;SDS011;20319;28.466;-16.274;2023-08-06T11:50:38;15.00;;;3.95;;
34030;SDS011;20319;28.466;-16.274;2023-08-06T11:53:04;13.40;;;3.58;;
34030;SDS011;20319;28.466;-16.274;2023-08-06T11:55:31;14.88;;;4.03;;
34030;SDS011;20319;28.466;-16.274;2023-08-06T11:57:57;15.32;;;4.22;;
34030;SDS011;20319;28.466;-16.274;2023-08-06T12:00:24;20.52;;;10.60;;
34030;SDS011;20319;28.466;-16.274;2023-08-06T12:02:50;18.00;;;4.55;;
34030;SDS011;20319;28.466;-16.274;2023-08-06T12:05:18;13.32;;;3.72;;
34030;SDS011;20319;28.466;-16.274;2023-08-06T12:07:55;12.32;;;3.88;;
34030;SDS011;20319;28.466;-16.274;2023-08-06T12:10:24;15.18;;;4.10;;
34030;SDS011;20319;28.466;-16.274;2023-08-06T12:12:50;13.90;;;3.50;;
34030;SDS011;20319;28.466;-16.274;2023-08-06T12:15:16;17.95;;;3.97;;
34030;SDS011;20319;28.466;-16.274;2023-08-06T12:17:42;14.43;;;4.15;;
34030;SDS011;20319;28.466;-16.274;2023-08-06T12:20:08;18.42;;;5.18;;
34030;SDS011;20319;28.466;-16.274;2023-08-06T12:22:35;13.48;;;4.07;;
34030;SDS011;20319;28.466;-16.274;2023-08-06T12:25:04;16.90;;;4.15;;
34030;SDS011;20319;28.466;-16.274;2023-08-06T12:27:36;18.58;;;4.57;;
34030;SDS011;20319;28.466;-16.274;2023-08-06T12:30:03;14.23;;;4.45;;
34030;SDS011;20319;28.466;-16.274;2023-08-06T12:32:30;12.98;;;4.05;;
34030;SDS011;20319;28.466;-16.274;2023-08-06T12:34:56;19.33;;;4.40;;
34030;SDS011;20319;28.466;-16.274;2023-08-06T12:37:23;17.63;;;4.10;;
34030;SDS011;20319;28.466;-16.274;2023-08-06T12:39:50;19.60;;;4.57;;
34030;SDS011;20319;28.466;-16.274;2023-08-06T12:42:16;18.75;;;4.80;;
34030;SDS011;20319;28.466;-16.274;2023-08-06T12:44:41;15.35;;;4.75;;
34030;SDS011;20319;28.466;-16.274;2023-08-06T12:47:07;16.95;;;4.43;;
34030;SDS011;20319;28.466;-16.274;2023-08-06T12:49:33;16.52;;;4.65;;
34030;SDS011;20319;28.466;-16.274;2023-08-06T12:51:59;16.83;;;4.85;;
34030;SDS011;20319;28.466;-16.274;2023-08-06T12:54:26;15.63;;;4.30;;
34030;SDS011;20319;28.466;-16.274;2023-08-06T12:56:52;17.23;;;4.47;;
34030;SDS011;20319;28.466;-16.274;2023-08-06T12:59:18;12.95;;;4.07;;
34030;SDS011;20319;28.466;-16.274;2023-08-06T13:01:44;17.85;;;4.68;;
34030;SDS011;20319;28.466;-16.274;2023-08-06T13:04:11;16.27;;;4.40;;
34030;SDS011;20319;28.466;-16.274;2023-08-06T13:06:37;18.92;;;4.60;;
34030;SDS011;20319;28.466;-16.274;2023-08-06T13:09:05;14.00;;;4.13;;
34030;SDS011;20319;28.466;-16.274;2023-08-06T13:11:32;15.07;;;4.30;;
34030;SDS011;20319;28.466;-16.274;2023-08-06T13:14:03;18.35;;;4.10;;
34030;SDS011;20319;28.466;-16.274;2023-08-06T13:16:30;15.50;;;4.30;;
34030;SDS011;20319;28.466;-16.274;2023-08-06T13:18:56;16.10;;;4.70;;
34030;SDS011;20319;28.466;-16.274;2023-08-06T13:21:22;16.48;;;4.07;;
34030;SDS011;20319;28.466;-16.274;2023-08-06T13:23:47;15.50;;;5.38;;
34030;SDS011;20319;28.466;-16.274;2023-08-06T13:26:13;15.10;;;3.78;;
34030;SDS011;20319;28.466;-16.274;2023-08-06T13:28:40;16.75;;;4.20;;
34030;SDS011;20319;28.466;-16.274;2023-08-06T13:31:06;12.35;;;3.80;;
34030;SDS011;20319;28.466;-16.274;2023-08-06T13:33:32;16.67;;;3.80;;
34030;SDS011;20319;28.466;-16.274;2023-08-06T13:35:58;14.15;;;3.90;;
34030;SDS011;20319;28.466;-16.274;2023-08-06T13:38:24;16.08;;;4.07;;
34030;SDS011;20319;28.466;-16.274;2023-08-06T13:40:49;13.63;;;4.10;;
34030;SDS011;20319;28.466;-16.274;2023-08-06T13:43:15;14.30;;;4.10;;
34030;SDS011;20319;28.466;-16.274;2023-08-06T13:45:44;15.55;;;4.07;;
34030;SDS011;20319;28.466;-16.274;2023-08-06T13:48:09;12.63;;;3.45;;
34030;SDS011;20319;28.466;-16.274;2023-08-06T13:50:35;12.32;;;4.00;;
34030;SDS011;20319;28.466;-16.274;2023-08-06T13:53:02;14.07;;;3.95;;
34030;SDS011;20319;28.466;-16.274;2023-08-06T13:55:28;13.70;;;3.90;;
34030;SDS011;20319;28.466;-16.274;2023-08-06T13:57:54;12.48;;;4.00;;
34030;SDS011;20319;28.466;-16.274;2023-08-06T14:00:19;11.82;;;3.95;;
34030;SDS011;20319;28.466;-16.274;2023-08-06T14:02:45;15.02;;;3.70;;
34030;SDS011;20319;28.466;-16.274;2023-08-06T14:05:11;15.68;;;4.43;;
34030;SDS011;20319;28.466;-16.274;2023-08-06T14:07:36;13.63;;;4.35;;
34030;SDS011;20319;28.466;-16.274;2023-08-06T14:10:02;15.45;;;4.85;;
34030;SDS011;20319;28.466;-16.274;2023-08-06T14:12:28;16.33;;;4.65;;